createdAt,value
2022-10-01T00:02:59.839Z,13.01
2022-10-01T00:06:13.213Z,13.06
2022-10-01T00:09:15.014Z,13.09
2022-10-01T00:12:17.064Z,13.11
2022-10-01T00:15:21.016Z,13.05
2022-10-01T00:18:23.164Z,12.86
2022-10-01T00:21:27.815Z,12.73
2022-10-01T00:24:29.969Z,12.62
2022-10-01T00:27:31.775Z,12.60
2022-10-01T00:30:38.400Z,12.67
2022-10-01T00:33:42.803Z,12.61
2022-10-01T00:36:45.963Z,12.59
2022-10-01T00:39:47.829Z,12.60
2022-10-01T00:42:49.932Z,12.52
2022-10-01T00:45:54.501Z,12.40
2022-10-01T00:49:09.529Z,12.43
2022-10-01T00:52:16.033Z,12.41
2022-10-01T00:55:27.432Z,12.24
2022-10-01T00:58:30.072Z,12.22
2022-10-01T01:01:35.823Z,12.41
2022-10-01T01:04:40.380Z,12.54
2022-10-01T01:07:45.488Z,12.51
2022-10-01T01:10:55.900Z,12.53
2022-10-01T01:14:25.383Z,12.45
2022-10-01T01:17:36.014Z,12.32
2022-10-01T01:21:00.961Z,12.46
2022-10-01T01:24:45.561Z,12.54
2022-10-01T01:28:13.452Z,12.44
2022-10-01T01:31:18.979Z,12.54
2022-10-01T01:34:27.342Z,12.49
2022-10-01T01:37:35.060Z,12.59
2022-10-01T01:40:39.372Z,12.64
2022-10-01T01:43:44.346Z,12.67
2022-10-01T01:46:49.479Z,12.65
2022-10-01T01:49:53.019Z,12.68
2022-10-01T01:52:55.698Z,12.73
2022-10-01T01:55:58.013Z,12.79
2022-10-01T01:59:01.188Z,12.81
2022-10-01T02:02:04.595Z,12.87
2022-10-01T02:05:12.399Z,12.95
2022-10-01T02:08:35.076Z,12.99
2022-10-01T02:11:44.917Z,13.02
2022-10-01T02:15:26.028Z,12.99
2022-10-01T02:18:50.956Z,12.98
2022-10-01T02:22:00.761Z,12.98
2022-10-01T02:25:06.381Z,13.06
2022-10-01T02:28:12.162Z,13.12
2022-10-01T02:31:15.843Z,13.15
2022-10-01T02:34:20.352Z,13.09
2022-10-01T02:37:24.700Z,13.03
2022-10-01T02:40:28.766Z,13.07
2022-10-01T02:43:50.343Z,13.17
2022-10-01T02:46:56.192Z,13.14
2022-10-01T02:49:58.008Z,13.16
2022-10-01T02:53:05.066Z,13.10
2022-10-01T02:56:06.755Z,13.10
2022-10-01T02:59:09.273Z,13.07
2022-10-01T03:02:11.475Z,13.07
2022-10-01T03:05:13.567Z,13.11
2022-10-01T03:08:15.595Z,13.06
2022-10-01T03:11:17.316Z,13.12
2022-10-01T03:14:20.091Z,12.97
2022-10-01T03:17:22.455Z,12.94
2022-10-01T03:20:24.708Z,12.83
2022-10-01T03:23:27.067Z,12.83
2022-10-01T03:26:28.819Z,12.98
2022-10-01T03:29:31.700Z,12.97
2022-10-01T03:32:33.719Z,12.99
2022-10-01T03:35:35.481Z,13.06
2022-10-01T03:38:37.560Z,13.10
2022-10-01T03:41:40.140Z,12.99
2022-10-01T03:44:42.724Z,12.87
2022-10-01T03:47:44.567Z,12.91
2022-10-01T03:50:57.579Z,12.99
2022-10-01T03:53:59.540Z,13.06
2022-10-01T03:57:02.064Z,12.95
2022-10-01T04:00:04.880Z,13.03
2022-10-01T04:03:14.161Z,13.03
2022-10-01T04:06:16.510Z,12.91
2022-10-01T04:09:25.449Z,12.93
2022-10-01T04:12:27.890Z,12.88
2022-10-01T04:15:29.700Z,12.82
2022-10-01T04:18:32.023Z,12.74
2022-10-01T04:21:34.365Z,12.74
2022-10-01T04:24:36.336Z,12.76
2022-10-01T04:27:39.866Z,12.62
2022-10-01T04:30:44.283Z,12.63
2022-10-01T04:33:46.186Z,12.71
2022-10-01T04:36:48.432Z,12.79
2022-10-01T04:39:50.474Z,12.91
2022-10-01T04:42:52.903Z,12.91
2022-10-01T04:45:54.985Z,12.77
2022-10-01T04:48:57.014Z,12.82
2022-10-01T04:52:01.755Z,12.64
2022-10-01T04:55:03.972Z,12.69
2022-10-01T04:58:06.339Z,12.70
2022-10-01T05:01:08.389Z,12.72
2022-10-01T05:04:11.064Z,12.68
2022-10-01T05:07:13.107Z,12.80
2022-10-01T05:10:18.360Z,12.71
2022-10-01T05:13:20.518Z,12.80
2022-10-01T05:16:22.588Z,12.81
2022-10-01T05:19:28.989Z,12.86
2022-10-01T05:22:32.322Z,12.88
2022-10-01T05:25:34.948Z,12.89
2022-10-01T05:28:37.484Z,12.89
2022-10-01T05:31:43.015Z,12.88
2022-10-01T05:34:45.818Z,12.93
2022-10-01T05:37:53.673Z,12.92
2022-10-01T05:40:56.190Z,12.97
2022-10-01T05:43:58.771Z,13.03
2022-10-01T05:47:02.470Z,13.13
2022-10-01T05:50:05.958Z,13.10
2022-10-01T05:53:10.519Z,13.06
2022-10-01T05:56:13.137Z,13.02
2022-10-01T05:59:17.845Z,13.05
2022-10-01T06:02:21.179Z,13.03
2022-10-01T06:05:24.672Z,13.07
2022-10-01T06:08:29.207Z,13.07
2022-10-01T06:11:31.599Z,13.06
2022-10-01T06:14:35.572Z,13.11
2022-10-01T06:17:43.900Z,13.09
2022-10-01T06:20:46.926Z,13.17
2022-10-01T06:23:50.756Z,13.20
2022-10-01T06:26:54.036Z,13.04
2022-10-01T06:29:56.281Z,13.05
2022-10-01T06:33:03.030Z,12.76
2022-10-01T06:36:05.607Z,12.98
2022-10-01T06:39:08.381Z,13.16
2022-10-01T06:42:11.001Z,13.18
2022-10-01T06:45:13.336Z,13.27
2022-10-01T06:48:18.867Z,13.23
2022-10-01T06:51:41.395Z,13.26
2022-10-01T06:54:43.894Z,13.35
2022-10-01T06:57:46.601Z,13.40
2022-10-01T07:00:49.585Z,13.41
2022-10-01T07:03:55.548Z,13.47
2022-10-01T07:06:57.852Z,13.43
2022-10-01T07:09:59.997Z,13.40
2022-10-01T07:13:28.414Z,13.49
2022-10-01T07:16:31.079Z,13.53
2022-10-01T07:19:33.795Z,13.33
2022-10-01T07:22:37.258Z,13.29
2022-10-01T07:25:41.402Z,13.56
2022-10-01T07:28:45.336Z,13.72
2022-10-01T07:31:47.963Z,13.82
2022-10-01T07:34:50.842Z,13.86
2022-10-01T07:37:55.706Z,13.80
2022-10-01T07:40:59.685Z,13.62
2022-10-01T07:44:03.723Z,13.62
2022-10-01T07:47:05.714Z,13.81
2022-10-01T07:50:08.258Z,13.71
2022-10-01T07:53:10.131Z,13.79
2022-10-01T07:56:12.637Z,13.92
2022-10-01T07:59:15.925Z,14.07
2022-10-01T08:02:19.629Z,14.02
2022-10-01T08:05:25.374Z,14.11
2022-10-01T08:08:28.513Z,14.01
2022-10-01T08:11:32.045Z,14.09
2022-10-01T08:14:36.478Z,14.26
2022-10-01T08:17:39.718Z,14.36
2022-10-01T08:20:42.621Z,14.42
2022-10-01T08:23:44.596Z,14.42
2022-10-01T08:26:53.644Z,14.39
2022-10-01T08:29:56.581Z,14.44
2022-10-01T08:33:01.615Z,14.55
2022-10-01T08:36:04.985Z,14.67
2022-10-01T08:39:08.357Z,14.46
2022-10-01T08:42:28.067Z,14.48
2022-10-01T08:45:36.684Z,14.51
2022-10-01T08:48:57.134Z,14.57
2022-10-01T08:52:26.268Z,14.42
2022-10-01T08:55:38.295Z,14.33
2022-10-01T08:58:47.552Z,14.37
2022-10-01T09:01:52.308Z,14.28
2022-10-01T09:05:19.984Z,14.28
2022-10-01T09:08:51.098Z,14.32
2022-10-01T09:12:36.337Z,14.41
2022-10-01T09:16:08.350Z,14.31
2022-10-01T09:19:20.688Z,14.26
2022-10-01T09:22:42.241Z,14.20
2022-10-01T09:25:50.844Z,14.21
2022-10-01T09:28:55.327Z,14.24
2022-10-01T09:31:59.493Z,14.46
2022-10-01T09:35:55.466Z,14.45
2022-10-01T09:39:28.721Z,14.35
2022-10-01T09:42:31.427Z,14.18
2022-10-01T09:45:35.035Z,14.15
2022-10-01T09:48:40.814Z,14.02
2022-10-01T09:51:51.950Z,14.11
2022-10-01T09:55:04.496Z,14.23
2022-10-01T09:58:18.129Z,13.86
2022-10-01T10:01:29.887Z,13.65
2022-10-01T10:04:33.469Z,13.55
2022-10-01T10:07:35.582Z,13.61
2022-10-01T10:10:39.710Z,13.66
2022-10-01T10:13:50.222Z,13.77
2022-10-01T10:16:52.819Z,13.65
2022-10-01T10:19:56.247Z,13.65
2022-10-01T10:23:23.650Z,13.58
2022-10-01T10:26:35.320Z,13.78
2022-10-01T10:29:38.070Z,13.95
2022-10-01T10:32:40.503Z,13.88
2022-10-01T10:35:44.014Z,14.02
2022-10-01T10:38:52.778Z,14.15
2022-10-01T10:41:57.087Z,14.14
2022-10-01T10:45:03.798Z,14.30
2022-10-01T10:48:08.331Z,14.16
2022-10-01T10:51:13.693Z,14.23
2022-10-01T10:54:23.889Z,14.28
2022-10-01T10:57:28.561Z,14.31
2022-10-01T11:00:31.397Z,14.42
2022-10-01T11:03:33.617Z,14.41
2022-10-01T11:06:36.395Z,14.49
2022-10-01T11:09:51.276Z,14.39
2022-10-01T11:13:20.381Z,14.47
2022-10-01T11:16:48.837Z,14.62
2022-10-01T11:20:30.600Z,15.03
2022-10-01T11:24:10.081Z,15.46
2022-10-01T11:27:23.417Z,15.66
2022-10-01T11:31:08.070Z,15.82
2022-10-01T11:34:22.795Z,16.05
2022-10-01T11:37:43.259Z,16.18
2022-10-01T11:41:08.481Z,16.16
2022-10-01T11:44:15.639Z,16.22
2022-10-01T11:47:24.195Z,16.13
2022-10-01T11:50:35.111Z,16.15
2022-10-01T11:53:48.390Z,16.45
2022-10-01T11:57:12.119Z,16.68
2022-10-01T12:00:16.962Z,16.95
2022-10-01T12:03:22.453Z,17.02
2022-10-01T12:06:39.027Z,16.90
2022-10-01T12:10:19.815Z,16.80
2022-10-01T12:13:34.937Z,16.45
2022-10-01T12:16:41.539Z,16.44
2022-10-01T12:19:47.871Z,16.63
2022-10-01T12:22:50.479Z,16.56
2022-10-01T12:25:58.600Z,16.43
2022-10-01T12:29:19.713Z,16.25
2022-10-01T12:32:28.380Z,16.10
2022-10-01T12:36:06.995Z,16.18
2022-10-01T12:39:29.561Z,16.21
2022-10-01T12:42:56.021Z,15.86
2022-10-01T12:46:07.576Z,16.03
2022-10-01T12:49:32.372Z,16.30
2022-10-01T12:53:22.236Z,16.60
2022-10-01T12:56:40.678Z,16.40
2022-10-01T13:00:03.401Z,16.22
2022-10-01T13:03:28.209Z,16.16
2022-10-01T13:07:01.144Z,16.15
2022-10-01T13:11:15.370Z,16.04
2022-10-01T13:14:29.758Z,16.35
2022-10-01T13:17:50.424Z,16.25
2022-10-01T13:21:06.445Z,16.21
2022-10-01T13:24:11.973Z,15.85
2022-10-01T13:27:28.475Z,15.79
2022-10-01T13:30:41.770Z,15.81
2022-10-01T13:33:54.923Z,15.95
2022-10-01T13:36:57.262Z,16.22
2022-10-01T13:40:00.690Z,16.15
2022-10-01T13:43:24.635Z,16.11
2022-10-01T13:46:31.324Z,15.97
2022-10-01T13:49:35.285Z,16.16
2022-10-01T13:52:37.629Z,16.17
2022-10-01T13:55:43.413Z,16.13
2022-10-01T13:58:46.816Z,16.00
2022-10-01T14:01:49.370Z,15.59
2022-10-01T14:04:51.901Z,15.28
2022-10-01T14:08:26.446Z,15.59
2022-10-01T14:11:49.655Z,15.34
2022-10-01T14:15:15.165Z,15.21
2022-10-01T14:18:22.084Z,15.13
2022-10-01T14:21:36.320Z,15.11
2022-10-01T14:25:07.275Z,15.20
2022-10-01T14:28:30.724Z,15.27
2022-10-01T14:31:41.556Z,15.36
2022-10-01T14:35:07.937Z,15.04
2022-10-01T14:38:15.855Z,15.02
2022-10-01T14:41:19.988Z,15.18
2022-10-01T14:44:34.927Z,15.25
2022-10-01T14:47:36.945Z,15.41
2022-10-01T14:50:40.350Z,15.42
2022-10-01T14:53:43.239Z,15.40
2022-10-01T14:56:45.440Z,15.37
2022-10-01T14:59:48.829Z,15.34
2022-10-01T15:03:03.102Z,15.28
2022-10-01T15:06:11.955Z,15.28
2022-10-01T15:09:18.737Z,15.32
2022-10-01T15:12:22.870Z,15.32
2022-10-01T15:15:29.664Z,15.40
2022-10-01T15:18:32.159Z,15.47
2022-10-01T15:21:39.368Z,15.33
2022-10-01T15:24:45.408Z,15.38
2022-10-01T15:27:49.275Z,15.49
2022-10-01T15:30:51.655Z,15.43
2022-10-01T15:33:53.638Z,15.25
2022-10-01T15:36:56.591Z,15.22
2022-10-01T15:39:59.445Z,15.18
2022-10-01T15:43:07.694Z,15.16
2022-10-01T15:46:18.120Z,15.15
2022-10-01T15:49:24.962Z,15.11
2022-10-01T15:52:45.827Z,14.96
2022-10-01T15:55:53.007Z,14.72
2022-10-01T15:58:58.350Z,14.75
2022-10-01T16:02:00.521Z,14.77
2022-10-01T16:05:06.517Z,14.67
2022-10-01T16:08:33.167Z,14.50
2022-10-01T16:11:53.707Z,14.31
2022-10-01T16:15:02.392Z,14.32
2022-10-01T16:18:22.144Z,14.37
2022-10-01T16:21:24.668Z,14.38
2022-10-01T16:24:29.508Z,14.38
2022-10-01T16:27:45.321Z,14.37
2022-10-01T16:30:50.600Z,14.28
2022-10-01T16:33:52.977Z,14.22
2022-10-01T16:36:55.047Z,14.16
2022-10-01T16:39:57.622Z,14.15
2022-10-01T16:43:00.490Z,14.10
2022-10-01T16:46:02.579Z,14.06
2022-10-01T16:49:15.806Z,14.01
2022-10-01T16:52:17.998Z,13.95
2022-10-01T16:55:36.023Z,13.95
2022-10-01T16:58:38.925Z,13.95
2022-10-01T17:01:41.121Z,13.78
2022-10-01T17:04:43.151Z,13.56
2022-10-01T17:07:45.507Z,13.57
2022-10-01T17:10:51.904Z,13.61
2022-10-01T17:13:54.149Z,13.48
2022-10-01T17:16:56.499Z,13.44
2022-10-01T17:19:59.101Z,13.51
2022-10-01T17:23:01.666Z,13.61
2022-10-01T17:26:07.984Z,13.47
2022-10-01T17:29:10.480Z,13.43
2022-10-01T17:32:12.737Z,13.40
2022-10-01T17:35:15.685Z,13.49
2022-10-01T17:38:19.317Z,13.34
2022-10-01T17:41:21.829Z,13.17
2022-10-01T17:44:23.834Z,13.13
2022-10-01T17:47:26.348Z,13.18
2022-10-01T17:50:28.731Z,13.16
2022-10-01T17:53:38.288Z,13.00
2022-10-01T17:56:44.438Z,12.82
2022-10-01T17:59:46.477Z,12.81
2022-10-01T18:02:48.989Z,12.85
2022-10-01T18:05:51.480Z,12.79
2022-10-01T18:08:56.313Z,12.72
2022-10-01T18:11:58.865Z,12.66
2022-10-01T18:15:01.732Z,12.68
2022-10-01T18:21:25.949Z,12.54
2022-10-01T18:24:29.457Z,12.40
2022-10-01T18:27:31.512Z,12.35
2022-10-01T18:30:33.901Z,12.35
2022-10-01T18:33:37.508Z,12.43
2022-10-01T18:36:59.237Z,12.29
2022-10-01T18:40:18.201Z,12.24
2022-10-01T18:43:24.331Z,12.24
2022-10-01T18:46:44.079Z,12.13
2022-10-01T18:50:21.793Z,12.11
2022-10-01T18:53:54.402Z,12.20
2022-10-01T18:57:26.410Z,12.11
2022-10-01T19:00:55.272Z,12.08
2022-10-01T19:04:03.667Z,12.07
2022-10-01T19:07:39.817Z,12.11
2022-10-01T19:10:57.999Z,12.16
2022-10-01T19:14:21.812Z,12.04
2022-10-01T19:17:36.300Z,12.03
2022-10-01T19:20:54.304Z,12.22
2022-10-01T19:24:15.538Z,12.12
2022-10-01T19:27:36.826Z,12.01
2022-10-01T19:31:04.605Z,12.13
2022-10-01T19:34:09.866Z,12.14
2022-10-01T19:37:27.907Z,12.14
2022-10-01T19:40:56.233Z,12.10
2022-10-01T19:44:03.724Z,12.18
2022-10-01T19:47:20.930Z,12.25
2022-10-01T19:50:33.515Z,12.16
2022-10-01T19:53:44.806Z,12.17
2022-10-01T19:57:07.013Z,12.18
2022-10-01T20:00:19.623Z,12.16
2022-10-01T20:03:28.107Z,12.15
2022-10-01T20:06:34.764Z,12.05
2022-10-01T20:10:08.306Z,12.07
2022-10-01T20:13:34.097Z,12.12
2022-10-01T20:16:41.167Z,12.14
2022-10-01T20:19:49.859Z,12.11
2022-10-01T20:23:29.479Z,12.15
2022-10-01T20:26:48.370Z,12.16
2022-10-01T20:29:56.140Z,12.09
2022-10-01T20:33:43.708Z,12.02
2022-10-01T20:36:49.373Z,12.02
2022-10-01T20:39:58.307Z,12.01
2022-10-01T20:43:13.848Z,12.00
2022-10-01T20:46:27.011Z,12.01
2022-10-01T20:50:09.406Z,12.00
2022-10-01T20:53:22.606Z,12.01
2022-10-01T20:56:25.622Z,12.10
2022-10-01T20:59:33.523Z,12.11
2022-10-01T21:02:55.072Z,12.06
2022-10-01T21:05:57.491Z,12.10
2022-10-01T21:09:25.727Z,12.11
2022-10-01T21:12:36.502Z,12.12
2022-10-01T21:16:08.903Z,12.05
2022-10-01T21:19:33.020Z,12.04
2022-10-01T21:22:43.363Z,12.02
2022-10-01T21:25:58.761Z,12.06
2022-10-01T21:29:51.987Z,12.07
2022-10-01T21:33:03.342Z,12.02
2022-10-01T21:36:20.395Z,12.02
2022-10-01T21:40:09.025Z,12.06
2022-10-01T21:43:28.910Z,12.05
2022-10-01T21:46:33.408Z,12.17
2022-10-01T21:49:54.588Z,12.16
2022-10-01T21:53:17.148Z,12.13
2022-10-01T21:56:38.708Z,12.15
2022-10-01T21:59:47.781Z,12.22
2022-10-01T22:03:11.496Z,12.22
2022-10-01T22:06:52.897Z,12.22
2022-10-01T22:10:16.322Z,12.26
2022-10-01T22:13:27.813Z,12.31
2022-10-01T22:16:38.035Z,12.26
2022-10-01T22:19:44.846Z,12.20
2022-10-01T22:22:47.506Z,12.27
2022-10-01T22:26:01.633Z,12.33
2022-10-01T22:29:08.780Z,12.28
2022-10-01T22:32:12.732Z,12.29
2022-10-01T22:35:46.966Z,12.20
2022-10-01T22:38:54.274Z,12.27
2022-10-01T22:42:17.133Z,12.33
2022-10-01T22:45:21.500Z,12.34
2022-10-01T22:48:33.354Z,12.29
2022-10-01T22:51:56.348Z,12.35
2022-10-01T22:55:36.946Z,12.36
2022-10-01T22:59:08.764Z,12.36
2022-10-01T23:02:25.903Z,12.40
2022-10-01T23:05:44.323Z,12.40
2022-10-01T23:08:58.444Z,12.37
2022-10-01T23:12:10.144Z,12.28
2022-10-01T23:15:27.232Z,12.29
2022-10-01T23:18:54.462Z,12.29
2022-10-01T23:22:08.082Z,12.34
2022-10-01T23:25:17.564Z,12.26
2022-10-01T23:28:33.968Z,12.26
2022-10-01T23:31:44.379Z,12.21
2022-10-01T23:35:02.555Z,12.18
2022-10-01T23:38:07.289Z,12.22
2022-10-01T23:41:30.736Z,12.27
2022-10-01T23:44:51.184Z,12.26
2022-10-01T23:47:58.908Z,12.26
2022-10-01T23:51:05.921Z,12.19
2022-10-01T23:54:22.105Z,12.21
2022-10-01T23:57:31.589Z,12.28
